createdAt,value
2023-06-24T00:01:52.211Z,99.90
2023-06-24T00:04:21.990Z,99.90
2023-06-24T00:06:50.248Z,99.90
2023-06-24T00:09:18.494Z,99.90
2023-06-24T00:11:46.704Z,99.90
2023-06-24T00:14:16.343Z,99.90
2023-06-24T00:16:47.336Z,99.90
2023-06-24T00:19:15.560Z,99.90
2023-06-24T00:21:43.771Z,99.90
2023-06-24T00:24:11.860Z,99.90
2023-06-24T00:26:46.785Z,99.90
2023-06-24T00:29:15.021Z,99.90
2023-06-24T00:31:43.342Z,99.90
2023-06-24T00:34:12.901Z,99.90
2023-06-24T00:36:41.467Z,99.90
2023-06-24T00:39:10.756Z,99.90
2023-06-24T00:41:38.991Z,99.90
2023-06-24T00:44:10.076Z,99.90
2023-06-24T00:46:38.687Z,99.90
2023-06-24T00:49:06.827Z,99.90
2023-06-24T00:51:37.300Z,99.90
2023-06-24T00:54:06.019Z,99.90
2023-06-24T00:56:39.506Z,99.90
2023-06-24T00:59:09.963Z,99.90
2023-06-24T01:01:38.784Z,99.90
2023-06-24T01:04:08.803Z,99.90
2023-06-24T01:06:44.829Z,99.90
2023-06-24T01:09:14.602Z,99.90
2023-06-24T01:11:42.811Z,99.90
2023-06-24T01:14:10.962Z,99.90
2023-06-24T01:16:46.511Z,99.90
2023-06-24T01:19:35.981Z,99.90
2023-06-24T01:22:18.330Z,99.90
2023-06-24T01:25:03.361Z,99.90
2023-06-24T01:27:47.973Z,99.90
2023-06-24T01:30:32.955Z,99.90
2023-06-24T01:33:06.727Z,99.90
2023-06-24T01:35:37.626Z,99.90
2023-06-24T01:38:12.494Z,99.90
2023-06-24T01:40:47.347Z,99.90
2023-06-24T01:43:17.326Z,99.90
2023-06-24T01:45:49.917Z,99.90
2023-06-24T01:48:25.087Z,99.90
2023-06-24T01:51:00.222Z,99.90
2023-06-24T01:53:30.740Z,99.90
2023-06-24T01:56:01.554Z,99.90
2023-06-24T01:58:31.463Z,99.90
2023-06-24T02:00:59.953Z,99.90
2023-06-24T02:03:37.077Z,99.90
2023-06-24T02:06:07.749Z,99.90
2023-06-24T02:08:37.935Z,99.90
2023-06-24T02:11:07.296Z,99.90
2023-06-24T02:13:37.615Z,99.90
2023-06-24T02:16:07.950Z,99.90
2023-06-24T02:18:39.129Z,99.90
2023-06-24T02:21:08.003Z,99.90
2023-06-24T02:23:37.316Z,99.90
2023-06-24T02:26:10.891Z,99.90
2023-06-24T02:28:40.949Z,99.90
2023-06-24T02:31:11.908Z,99.90
2023-06-24T02:33:41.867Z,99.90
2023-06-24T02:36:10.754Z,99.90
2023-06-24T02:38:38.909Z,99.90
2023-06-24T02:41:14.589Z,99.90
2023-06-24T02:43:42.701Z,99.90
2023-06-24T02:46:13.804Z,99.90
2023-06-24T02:48:47.366Z,99.90
2023-06-24T02:51:15.589Z,99.90
2023-06-24T02:53:44.750Z,99.90
2023-06-24T02:56:15.666Z,99.90
2023-06-24T02:58:44.823Z,99.90
2023-06-24T03:01:13.571Z,99.90
2023-06-24T03:04:07.980Z,99.90
2023-06-24T03:06:38.472Z,99.90
2023-06-24T03:09:08.617Z,99.90
2023-06-24T03:11:43.202Z,99.90
2023-06-24T03:14:11.714Z,99.90
2023-06-24T03:16:40.290Z,99.90
2023-06-24T03:19:10.263Z,99.90
2023-06-24T03:21:38.396Z,99.90
2023-06-24T03:24:07.337Z,99.90
2023-06-24T03:26:36.338Z,99.90
2023-06-24T03:29:04.681Z,99.90
2023-06-24T03:31:32.784Z,99.90
2023-06-24T03:34:02.467Z,99.90
2023-06-24T03:36:31.957Z,99.90
2023-06-24T03:39:00.080Z,99.90
2023-06-24T03:41:29.038Z,99.90
2023-06-24T03:43:57.196Z,99.90
2023-06-24T03:46:25.353Z,99.90
2023-06-24T03:48:53.491Z,99.90
2023-06-24T03:51:21.615Z,99.90
2023-06-24T03:53:51.426Z,99.90
2023-06-24T03:56:19.670Z,99.90
2023-06-24T03:58:47.779Z,99.90
2023-06-24T04:01:15.933Z,99.90
2023-06-24T04:03:44.099Z,99.90
2023-06-24T04:06:12.342Z,99.90
2023-06-24T04:08:41.171Z,99.90
2023-06-24T04:11:10.666Z,99.90
2023-06-24T04:13:38.889Z,99.90
2023-06-24T04:16:07.102Z,99.90
2023-06-24T04:18:35.212Z,99.90
2023-06-24T04:21:03.853Z,99.90
2023-06-24T04:23:31.917Z,99.90
2023-06-24T04:26:00.090Z,99.90
2023-06-24T04:28:29.632Z,99.90
2023-06-24T04:30:58.836Z,99.90
2023-06-24T04:33:26.956Z,99.90
2023-06-24T04:35:57.618Z,99.90
2023-06-24T04:38:26.040Z,99.90
2023-06-24T04:40:54.115Z,99.90
2023-06-24T04:43:22.218Z,99.90
2023-06-24T04:45:52.076Z,99.90
2023-06-24T04:48:21.199Z,99.90
2023-06-24T04:50:49.342Z,99.90
2023-06-24T04:53:17.432Z,99.90
2023-06-24T04:55:45.503Z,99.90
2023-06-24T04:58:13.646Z,99.90
2023-06-24T05:00:41.799Z,99.90
2023-06-24T05:03:11.331Z,99.90
2023-06-24T05:05:39.752Z,99.90
2023-06-24T05:08:08.251Z,99.90
2023-06-24T05:10:36.397Z,99.90
2023-06-24T05:13:05.720Z,99.90
2023-06-24T05:15:33.969Z,99.90
2023-06-24T05:18:02.328Z,99.90
2023-06-24T05:20:31.850Z,99.90
2023-06-24T05:22:59.963Z,99.90
2023-06-24T05:25:28.097Z,99.90
2023-06-24T05:27:56.189Z,99.90
2023-06-24T05:30:24.397Z,99.90
2023-06-24T05:32:52.778Z,99.90
2023-06-24T05:35:22.171Z,99.90
2023-06-24T05:37:51.628Z,99.90
2023-06-24T05:40:19.768Z,99.90
2023-06-24T05:42:47.858Z,99.90
2023-06-24T05:45:15.971Z,99.90
2023-06-24T05:47:44.260Z,99.90
2023-06-24T05:50:12.665Z,99.90
2023-06-24T05:52:40.904Z,99.90
2023-06-24T05:55:10.767Z,99.90
2023-06-24T05:57:41.850Z,99.90
2023-06-24T06:00:11.283Z,99.90
2023-06-24T06:02:39.548Z,99.90
2023-06-24T06:05:08.074Z,99.90
2023-06-24T06:07:38.680Z,99.90
2023-06-24T06:10:07.703Z,99.90
2023-06-24T06:12:37.311Z,99.90
2023-06-24T06:15:06.048Z,99.90
2023-06-24T06:17:34.765Z,99.90
2023-06-24T06:20:03.110Z,99.90
2023-06-24T06:22:33.194Z,99.90
2023-06-24T06:25:01.409Z,99.90
2023-06-24T06:27:39.709Z,99.90
2023-06-24T06:30:09.364Z,99.90
2023-06-24T06:32:37.484Z,99.90
2023-06-24T06:35:06.258Z,99.90
2023-06-24T06:37:34.383Z,99.90
2023-06-24T06:40:02.600Z,99.90
2023-06-24T06:42:31.649Z,99.90
2023-06-24T06:45:01.187Z,99.90
2023-06-24T06:47:29.325Z,99.90
2023-06-24T06:49:57.442Z,99.90
2023-06-24T06:52:25.533Z,99.40
2023-06-24T06:55:02.827Z,99.70
2023-06-24T06:57:30.994Z,99.10
2023-06-24T07:00:00.606Z,99.30
2023-06-24T07:02:28.754Z,99.90
2023-06-24T07:04:57.040Z,99.60
2023-06-24T07:07:25.245Z,99.70
2023-06-24T07:09:53.525Z,99.60
2023-06-24T07:12:22.131Z,98.40
2023-06-24T07:14:58.252Z,98.20
2023-06-24T07:17:27.835Z,98.60
2023-06-24T07:19:55.939Z,98.90
2023-06-24T07:22:24.057Z,97.70
2023-06-24T07:24:52.115Z,98.90
2023-06-24T07:27:28.239Z,99.10
2023-06-24T07:29:56.360Z,99.20
2023-06-24T07:32:24.578Z,98.10
2023-06-24T07:34:54.271Z,99.30
2023-06-24T07:37:24.672Z,99.10
2023-06-24T07:39:53.819Z,97.50
2023-06-24T07:42:21.979Z,98.70
2023-06-24T07:44:52.556Z,98.00
2023-06-24T07:47:21.027Z,98.80
2023-06-24T07:49:49.311Z,96.30
2023-06-24T07:52:18.843Z,97.30
2023-06-24T07:54:46.989Z,96.10
2023-06-24T07:57:15.166Z,96.60
2023-06-24T07:59:43.282Z,96.70
2023-06-24T08:02:11.385Z,96.60
2023-06-24T08:04:39.595Z,96.60
2023-06-24T08:07:08.189Z,94.90
2023-06-24T08:09:37.716Z,96.30
2023-06-24T08:12:06.582Z,97.10
2023-06-24T08:14:34.686Z,95.10
2023-06-24T08:17:02.913Z,94.10
2023-06-24T08:19:31.023Z,94.50
2023-06-24T08:21:59.152Z,94.10
2023-06-24T08:24:28.333Z,92.50
2023-06-24T08:26:57.809Z,92.80
2023-06-24T08:29:25.916Z,93.30
2023-06-24T08:31:54.042Z,92.70
2023-06-24T08:34:22.304Z,93.70
2023-06-24T08:36:50.918Z,92.20
2023-06-24T08:39:19.053Z,92.40
2023-06-24T08:41:47.170Z,93.00
2023-06-24T08:44:20.816Z,92.40
2023-06-24T08:46:49.905Z,90.20
2023-06-24T08:49:29.772Z,90.10
2023-06-24T08:52:04.567Z,91.90
2023-06-24T08:54:35.866Z,87.20
2023-06-24T08:57:06.276Z,89.10
2023-06-24T08:59:36.597Z,85.20
2023-06-24T09:02:05.248Z,88.60
2023-06-24T09:04:33.412Z,88.50
2023-06-24T09:07:01.568Z,85.00
2023-06-24T09:09:30.020Z,90.50
2023-06-24T09:11:59.611Z,84.60
2023-06-24T09:14:29.558Z,83.70
2023-06-24T09:17:02.122Z,83.50
2023-06-24T09:19:31.304Z,79.80
2023-06-24T09:22:04.518Z,81.60
2023-06-24T09:24:33.655Z,82.10
2023-06-24T09:27:02.259Z,86.00
2023-06-24T09:29:31.706Z,79.50
2023-06-24T09:32:05.921Z,80.40
2023-06-24T09:34:34.940Z,77.10
2023-06-24T09:37:03.095Z,76.80
2023-06-24T09:39:37.900Z,78.20
2023-06-24T09:42:07.867Z,73.90
2023-06-24T09:44:36.290Z,80.50
2023-06-24T09:47:06.341Z,75.30
2023-06-24T09:49:34.431Z,72.90
2023-06-24T09:52:05.487Z,77.30
2023-06-24T09:54:35.040Z,74.90
2023-06-24T09:57:05.658Z,75.70
2023-06-24T09:59:35.528Z,77.80
2023-06-24T10:02:10.263Z,67.20
2023-06-24T10:04:39.145Z,70.20
2023-06-24T10:07:07.571Z,70.90
2023-06-24T10:09:35.830Z,75.10
2023-06-24T10:12:04.113Z,69.50
2023-06-24T10:14:33.599Z,65.40
2023-06-24T10:17:07.078Z,70.90
2023-06-24T10:19:40.894Z,69.40
2023-06-24T10:22:11.262Z,67.90
2023-06-24T10:24:43.159Z,67.10
2023-06-24T10:27:15.826Z,64.80
2023-06-24T10:29:47.795Z,66.60
2023-06-24T10:32:17.756Z,64.50
2023-06-24T10:34:46.945Z,64.50
2023-06-24T10:37:20.855Z,64.40
2023-06-24T10:39:53.133Z,60.50
2023-06-24T10:42:40.234Z,61.40
2023-06-24T10:45:20.321Z,61.30
2023-06-24T10:47:51.191Z,59.50
2023-06-24T10:50:22.210Z,56.70
2023-06-24T10:52:51.500Z,57.30
2023-06-24T10:55:20.727Z,56.10
2023-06-24T10:57:49.114Z,57.00
2023-06-24T11:00:17.820Z,56.10
2023-06-24T11:02:46.920Z,58.20
2023-06-24T11:05:16.680Z,55.10
2023-06-24T11:07:44.841Z,56.20
2023-06-24T11:10:15.202Z,53.70
2023-06-24T11:12:45.315Z,52.10
2023-06-24T11:15:21.712Z,54.30
2023-06-24T11:17:53.922Z,53.60
2023-06-24T11:20:35.634Z,56.20
2023-06-24T11:23:24.171Z,53.70
2023-06-24T11:26:12.250Z,51.00
2023-06-24T11:29:08.797Z,51.30
2023-06-24T11:31:45.257Z,54.30
2023-06-24T11:34:40.443Z,52.20
2023-06-24T11:37:24.387Z,52.10
2023-06-24T11:40:11.724Z,49.40
2023-06-24T11:42:52.484Z,49.10
2023-06-24T11:45:27.832Z,50.70
2023-06-24T11:48:17.614Z,50.40
2023-06-24T11:51:03.911Z,50.90
2023-06-24T11:53:57.822Z,52.10
2023-06-24T11:56:45.415Z,50.80
2023-06-24T11:59:34.678Z,47.00
2023-06-24T12:02:31.153Z,48.70
2023-06-24T12:05:13.961Z,50.00
2023-06-24T12:07:59.836Z,49.00
2023-06-24T12:10:40.681Z,48.80
2023-06-24T12:13:21.886Z,47.40
2023-06-24T12:16:19.465Z,47.60
2023-06-24T12:19:04.089Z,47.50
2023-06-24T12:21:46.709Z,47.50
2023-06-24T12:24:35.838Z,46.00
2023-06-24T12:27:24.844Z,47.00
2023-06-24T12:30:17.223Z,45.00
2023-06-24T12:32:54.990Z,46.00
2023-06-24T12:35:36.871Z,43.60
2023-06-24T12:38:37.122Z,46.30
2023-06-24T12:41:14.195Z,43.30
2023-06-24T12:44:05.506Z,44.70
2023-06-24T12:46:46.180Z,46.20
2023-06-24T12:49:30.837Z,45.30
2023-06-24T12:52:14.675Z,42.00
2023-06-24T12:54:56.283Z,43.20
2023-06-24T12:57:40.530Z,44.90
2023-06-24T13:00:30.933Z,43.30
2023-06-24T13:03:10.959Z,42.70
2023-06-24T13:05:51.004Z,42.00
2023-06-24T13:08:36.954Z,41.60
2023-06-24T13:11:12.341Z,41.00
2023-06-24T13:13:49.573Z,39.50
2023-06-24T13:16:29.827Z,41.10
2023-06-24T13:19:22.852Z,39.10
2023-06-24T13:21:58.327Z,43.20
2023-06-24T13:24:45.016Z,39.80
2023-06-24T13:27:39.743Z,42.00
2023-06-24T13:30:35.352Z,38.40
2023-06-24T13:33:16.703Z,40.00
2023-06-24T13:35:50.401Z,38.40
2023-06-24T13:38:43.037Z,38.10
2023-06-24T13:41:33.672Z,39.70
2023-06-24T13:44:19.382Z,37.10
2023-06-24T13:46:52.901Z,36.80
2023-06-24T13:49:38.298Z,37.40
2023-06-24T13:52:22.118Z,38.10
2023-06-24T13:55:02.254Z,40.00
2023-06-24T13:57:39.896Z,38.00
2023-06-24T14:00:24.983Z,39.40
2023-06-24T14:02:59.686Z,36.80
2023-06-24T14:05:40.787Z,37.90
2023-06-24T14:08:24.178Z,34.70
2023-06-24T14:11:08.492Z,38.60
2023-06-24T14:13:44.178Z,35.70
2023-06-24T14:16:35.397Z,35.30
2023-06-24T14:19:19.300Z,35.70
2023-06-24T14:21:59.149Z,38.60
2023-06-24T14:24:39.385Z,38.90
2023-06-24T14:27:31.933Z,35.30
2023-06-24T14:30:09.490Z,38.10
2023-06-24T14:32:52.138Z,37.60
2023-06-24T14:35:28.222Z,37.00
2023-06-24T14:38:29.653Z,35.10
2023-06-24T14:41:13.223Z,35.10
2023-06-24T14:43:53.563Z,37.10
2023-06-24T14:46:44.138Z,36.70
2023-06-24T14:49:30.925Z,32.20
2023-06-24T14:52:20.919Z,34.90
2023-06-24T14:55:06.126Z,34.40
2023-06-24T14:57:44.967Z,34.70
2023-06-24T15:00:21.130Z,35.10
2023-06-24T15:02:51.465Z,36.90
2023-06-24T15:05:33.651Z,35.00
2023-06-24T15:08:14.281Z,33.90
2023-06-24T15:10:53.584Z,33.80
2023-06-24T15:13:34.330Z,33.00
2023-06-24T15:16:16.418Z,32.70
2023-06-24T15:18:57.336Z,32.00
2023-06-24T15:21:41.408Z,33.50
2023-06-24T15:24:19.869Z,30.70
2023-06-24T15:27:09.080Z,32.10
2023-06-24T15:30:05.187Z,32.50
2023-06-24T15:33:09.950Z,32.10
2023-06-24T15:35:46.257Z,31.30
2023-06-24T15:38:26.886Z,32.30
2023-06-24T15:41:06.697Z,32.80
2023-06-24T15:43:44.684Z,32.00
2023-06-24T15:46:20.930Z,34.00
2023-06-24T15:49:04.014Z,32.50
2023-06-24T15:51:51.548Z,30.80
2023-06-24T15:54:31.686Z,33.30
2023-06-24T15:57:08.941Z,34.50
2023-06-24T15:59:47.917Z,33.70
2023-06-24T16:02:27.554Z,32.90
2023-06-24T16:05:03.672Z,32.50
2023-06-24T16:07:43.883Z,31.60
2023-06-24T16:10:26.368Z,32.40
2023-06-24T16:13:14.400Z,38.40
2023-06-24T16:16:02.738Z,31.80
2023-06-24T16:18:40.460Z,34.10
2023-06-24T16:21:19.587Z,32.40
2023-06-24T16:23:53.603Z,33.00
2023-06-24T16:26:52.533Z,32.40
2023-06-24T16:29:30.673Z,32.60
2023-06-24T16:32:25.308Z,32.80
2023-06-24T16:35:28.554Z,33.20
2023-06-24T16:38:00.645Z,34.30
2023-06-24T16:40:44.292Z,33.80
2023-06-24T16:43:21.596Z,32.00
2023-06-24T16:46:02.852Z,33.90
2023-06-24T16:49:05.031Z,33.90
2023-06-24T16:51:49.491Z,34.50
2023-06-24T16:54:22.770Z,34.90
2023-06-24T16:57:09.896Z,34.80
2023-06-24T16:59:56.086Z,33.40
2023-06-24T17:02:54.044Z,34.80
2023-06-24T17:05:29.306Z,35.90
2023-06-24T17:08:24.257Z,33.70
2023-06-24T17:10:58.510Z,34.00
2023-06-24T17:13:46.306Z,36.00
2023-06-24T17:16:38.205Z,36.00
2023-06-24T17:19:22.377Z,36.20
2023-06-24T17:22:06.577Z,36.60
2023-06-24T17:24:45.914Z,37.70
2023-06-24T17:27:21.566Z,35.70
2023-06-24T17:29:54.988Z,36.30
2023-06-24T17:32:38.842Z,36.40
2023-06-24T17:35:27.972Z,35.80
2023-06-24T17:38:03.684Z,37.10
2023-06-24T17:40:40.142Z,36.10
2023-06-24T17:43:27.931Z,35.80
2023-06-24T17:46:11.158Z,37.10
2023-06-24T17:48:48.646Z,36.40
2023-06-24T17:51:36.827Z,37.80
2023-06-24T17:54:21.859Z,37.70
2023-06-24T17:57:11.173Z,36.30
2023-06-24T17:59:53.422Z,37.00
2023-06-24T18:02:28.888Z,37.00
2023-06-24T18:05:17.073Z,37.00
2023-06-24T18:07:56.050Z,37.00
2023-06-24T18:10:34.845Z,37.20
2023-06-24T18:13:13.418Z,38.40
2023-06-24T18:15:58.160Z,40.00
2023-06-24T18:18:29.812Z,38.90
2023-06-24T18:21:04.267Z,39.10
2023-06-24T18:23:43.982Z,39.00
2023-06-24T18:26:27.526Z,40.10
2023-06-24T18:29:08.488Z,40.20
2023-06-24T18:31:50.184Z,40.60
2023-06-24T18:34:26.011Z,41.50
2023-06-24T18:37:02.694Z,42.00
2023-06-24T18:39:56.511Z,44.20
2023-06-24T18:45:26.851Z,45.90
2023-06-24T18:48:03.752Z,48.20
2023-06-24T18:50:38.664Z,48.90
2023-06-24T18:53:16.147Z,49.10
2023-06-24T18:55:48.991Z,48.90
2023-06-24T18:58:29.906Z,50.00
2023-06-24T19:01:20.480Z,51.20
2023-06-24T19:04:01.260Z,51.30
2023-06-24T19:06:41.939Z,51.70
2023-06-24T19:09:30.385Z,52.00
2023-06-24T19:12:00.102Z,53.30
2023-06-24T19:14:32.738Z,54.30
2023-06-24T19:17:14.782Z,54.30
2023-06-24T19:19:55.526Z,56.00
2023-06-24T19:22:30.261Z,55.70
2023-06-24T19:25:05.430Z,56.70
2023-06-24T19:27:48.185Z,57.00
2023-06-24T19:33:28.339Z,58.40
2023-06-24T19:36:09.151Z,59.20
2023-06-24T19:38:48.462Z,58.90
2023-06-24T19:41:25.863Z,59.10
2023-06-24T19:44:15.555Z,59.90
2023-06-24T19:46:46.969Z,60.00
2023-06-24T19:49:33.919Z,62.10
2023-06-24T19:52:20.591Z,64.80
2023-06-24T19:55:03.879Z,65.20
2023-06-24T19:57:41.342Z,65.10
2023-06-24T20:00:24.421Z,66.40
2023-06-24T20:03:23.499Z,66.20
2023-06-24T20:05:57.370Z,67.80
2023-06-24T20:08:32.655Z,67.70
2023-06-24T20:11:18.024Z,70.00
2023-06-24T20:14:06.536Z,70.80
2023-06-24T20:16:46.262Z,70.70
2023-06-24T20:19:39.019Z,71.80
2023-06-24T20:22:21.448Z,73.40
2023-06-24T20:25:10.854Z,74.60
2023-06-24T20:27:49.787Z,77.40
2023-06-24T20:30:27.030Z,78.60
2023-06-24T20:33:02.438Z,83.30
2023-06-24T20:35:59.882Z,81.30
2023-06-24T20:38:45.706Z,84.60
2023-06-24T20:41:36.920Z,90.10
2023-06-24T20:44:13.138Z,91.40
2023-06-24T20:46:54.583Z,91.60
2023-06-24T20:49:34.791Z,91.00
2023-06-24T20:52:22.956Z,91.70
2023-06-24T20:55:14.077Z,92.00
2023-06-24T20:57:56.444Z,92.30
2023-06-24T21:00:37.217Z,93.40
2023-06-24T21:03:23.642Z,92.70
2023-06-24T21:05:58.460Z,93.30
2023-06-24T21:08:35.841Z,93.50
2023-06-24T21:11:16.945Z,94.30
2023-06-24T21:14:07.987Z,95.50
2023-06-24T21:16:45.754Z,96.20
2023-06-24T21:19:38.171Z,96.80
2023-06-24T21:22:33.772Z,96.40
2023-06-24T21:25:16.199Z,97.50
2023-06-24T21:27:58.527Z,97.90
2023-06-24T21:33:21.420Z,95.10
2023-06-24T21:36:37.723Z,95.00
2023-06-24T21:39:20.275Z,94.60
2023-06-24T21:42:03.749Z,94.80
2023-06-24T21:44:52.986Z,94.10
2023-06-24T21:47:28.349Z,93.50
2023-06-24T21:50:06.166Z,93.90
2023-06-24T21:53:05.289Z,93.40
2023-06-24T21:55:43.865Z,93.90
2023-06-24T21:58:37.443Z,94.10
2023-06-24T22:01:16.859Z,93.90
2023-06-24T22:03:56.065Z,94.10
2023-06-24T22:06:47.704Z,93.50
2023-06-24T22:09:34.743Z,93.60
2023-06-24T22:12:22.195Z,94.90
2023-06-24T22:15:05.608Z,94.60
2023-06-24T22:17:44.360Z,95.10
2023-06-24T22:20:28.882Z,95.50
2023-06-24T22:23:07.545Z,95.30
2023-06-24T22:28:52.718Z,95.40
2023-06-24T22:31:35.353Z,94.80
2023-06-24T22:34:19.372Z,95.80
2023-06-24T22:36:59.919Z,96.00
2023-06-24T22:39:37.618Z,96.60
2023-06-24T22:42:24.529Z,96.70
2023-06-24T22:44:54.553Z,96.70
2023-06-24T22:47:35.234Z,97.70
2023-06-24T22:50:16.809Z,97.00
2023-06-24T22:53:00.260Z,97.50
2023-06-24T22:55:37.088Z,97.20
2023-06-24T22:58:38.140Z,97.90
2023-06-24T23:01:17.425Z,97.10
2023-06-24T23:03:58.844Z,97.80
2023-06-24T23:07:02.726Z,97.80
2023-06-24T23:09:44.075Z,98.70
2023-06-24T23:12:39.634Z,97.70
2023-06-24T23:15:17.901Z,98.10
2023-06-24T23:18:04.434Z,97.60
2023-06-24T23:20:41.180Z,97.40
2023-06-24T23:23:33.950Z,97.60
2023-06-24T23:26:14.362Z,97.40
2023-06-24T23:29:07.868Z,97.10
2023-06-24T23:31:45.701Z,96.30
2023-06-24T23:34:36.720Z,96.60
2023-06-24T23:37:32.407Z,96.80
2023-06-24T23:40:20.138Z,97.30
2023-06-24T23:43:01.731Z,96.60
2023-06-24T23:45:46.576Z,96.60
2023-06-24T23:48:46.933Z,96.30
2023-06-24T23:51:31.500Z,96.60
2023-06-24T23:54:15.350Z,96.30
2023-06-24T23:57:02.952Z,96.90
2023-06-24T23:59:42.513Z,97.00
